createdAt,value
2023-01-17T00:01:11.443Z,11.95
2023-01-17T00:03:57.992Z,12.15
2023-01-17T00:06:43.523Z,11.40
2023-01-17T00:09:32.908Z,13.95
2023-01-17T00:12:03.379Z,9.52
2023-01-17T00:14:49.706Z,12.25
2023-01-17T00:17:16.252Z,11.55
2023-01-17T00:20:01.246Z,10.57
2023-01-17T00:22:47.635Z,11.98
2023-01-17T00:25:34.234Z,11.77
2023-01-17T00:28:34.927Z,12.77
2023-01-17T00:31:01.714Z,11.23
2023-01-17T00:33:28.417Z,9.38
2023-01-17T00:35:56.465Z,10.55
2023-01-17T00:38:24.137Z,10.73
2023-01-17T00:40:50.596Z,10.35
2023-01-17T00:43:36.944Z,14.90
2023-01-17T00:46:22.879Z,11.10
2023-01-17T00:49:07.746Z,12.15
2023-01-17T00:51:53.185Z,8.45
2023-01-17T00:54:38.331Z,9.73
2023-01-17T00:57:23.803Z,11.95
2023-01-17T01:00:08.769Z,11.00
2023-01-17T01:02:53.629Z,10.20
2023-01-17T01:05:39.008Z,9.75
2023-01-17T01:08:36.314Z,12.35
2023-01-17T01:11:23.436Z,7.97
2023-01-17T01:14:08.535Z,11.40
2023-01-17T01:16:53.526Z,9.98
2023-01-17T01:19:38.398Z,8.07
2023-01-17T01:22:23.650Z,7.07
2023-01-17T01:25:08.801Z,8.63
2023-01-17T01:27:53.986Z,10.30
2023-01-17T01:30:39.127Z,9.90
2023-01-17T01:33:18.660Z,6.47
2023-01-17T01:35:46.528Z,6.57
2023-01-17T01:38:13.094Z,6.60
2023-01-17T01:40:43.916Z,6.75
2023-01-17T01:43:12.089Z,7.25
2023-01-17T01:45:38.834Z,8.38
2023-01-17T01:48:31.674Z,8.95
2023-01-17T01:50:58.779Z,7.63
2023-01-17T01:53:26.032Z,8.15
2023-01-17T01:55:53.071Z,10.75
2023-01-17T01:58:21.790Z,10.73
2023-01-17T02:00:48.489Z,8.32
2023-01-17T02:03:17.396Z,9.75
2023-01-17T02:05:44.149Z,12.00
2023-01-17T02:08:15.438Z,10.23
2023-01-17T02:10:42.384Z,8.18
2023-01-17T02:13:09.429Z,10.40
2023-01-17T02:15:49.502Z,8.35
2023-01-17T02:18:15.992Z,9.25
2023-01-17T02:20:58.777Z,8.00
2023-01-17T02:23:27.982Z,8.63
2023-01-17T02:26:00.263Z,7.55
2023-01-17T02:28:49.527Z,7.28
2023-01-17T02:31:31.580Z,11.90
2023-01-17T02:34:06.922Z,9.18
2023-01-17T02:36:36.382Z,9.07
2023-01-17T02:39:22.663Z,10.15
2023-01-17T02:41:52.482Z,12.18
2023-01-17T02:44:20.084Z,9.80
2023-01-17T02:46:47.160Z,11.60
2023-01-17T02:49:14.410Z,10.23
2023-01-17T02:52:01.140Z,10.65
2023-01-17T02:54:35.158Z,9.43
2023-01-17T02:57:18.427Z,10.55
2023-01-17T03:00:03.706Z,9.35
2023-01-17T03:02:48.908Z,7.40
2023-01-17T03:05:15.422Z,8.77
2023-01-17T03:07:44.344Z,6.80
2023-01-17T03:10:11.934Z,9.48
2023-01-17T03:12:39.826Z,8.00
2023-01-17T03:15:13.667Z,6.03
2023-01-17T03:17:42.606Z,7.32
2023-01-17T03:20:09.521Z,5.55
2023-01-17T03:22:35.998Z,7.65
2023-01-17T03:25:02.410Z,8.02
2023-01-17T03:27:28.859Z,6.18
2023-01-17T03:29:55.353Z,6.47
2023-01-17T03:32:21.833Z,5.85
2023-01-17T03:34:48.360Z,7.70
2023-01-17T03:37:14.797Z,6.72
2023-01-17T03:39:41.225Z,7.25
2023-01-17T03:42:07.911Z,7.38
2023-01-17T03:44:34.523Z,8.13
2023-01-17T03:47:01.030Z,9.75
2023-01-17T03:49:27.460Z,12.07
2023-01-17T03:51:53.918Z,7.60
2023-01-17T03:54:20.401Z,9.85
2023-01-17T03:56:46.834Z,8.02
2023-01-17T03:59:13.450Z,7.00
2023-01-17T04:01:39.977Z,13.30
2023-01-17T04:04:06.471Z,9.57
2023-01-17T04:06:32.932Z,9.75
2023-01-17T04:08:59.370Z,8.43
2023-01-17T04:11:25.847Z,7.18
2023-01-17T04:13:52.353Z,8.85
2023-01-17T04:16:19.104Z,7.35
2023-01-17T04:18:45.595Z,7.82
2023-01-17T04:21:12.058Z,6.60
2023-01-17T04:23:38.741Z,8.60
2023-01-17T04:26:05.556Z,5.35
2023-01-17T04:28:32.080Z,10.40
2023-01-17T04:30:59.455Z,6.65
2023-01-17T04:33:25.908Z,10.82
2023-01-17T04:35:52.876Z,9.52
2023-01-17T04:38:19.695Z,7.35
2023-01-17T04:40:46.248Z,7.18
2023-01-17T04:43:12.752Z,10.27
2023-01-17T04:45:39.299Z,11.23
2023-01-17T04:48:06.066Z,6.80
2023-01-17T04:50:32.927Z,8.60
2023-01-17T04:52:59.772Z,8.27
2023-01-17T04:55:26.440Z,9.40
2023-01-17T04:57:52.895Z,7.72
2023-01-17T05:00:19.640Z,10.23
2023-01-17T05:02:46.182Z,8.38
2023-01-17T05:05:13.510Z,9.73
2023-01-17T05:07:40.051Z,11.48
2023-01-17T05:10:06.808Z,8.27
2023-01-17T05:12:33.238Z,9.50
2023-01-17T05:14:59.779Z,14.07
2023-01-17T05:17:26.280Z,11.43
2023-01-17T05:19:52.836Z,9.30
2023-01-17T05:22:19.283Z,6.47
2023-01-17T05:24:46.765Z,9.40
2023-01-17T05:27:13.793Z,8.10
2023-01-17T05:29:40.656Z,6.18
2023-01-17T05:32:07.224Z,5.88
2023-01-17T05:34:34.277Z,6.97
2023-01-17T05:37:00.804Z,7.60
2023-01-17T05:39:27.320Z,8.00
2023-01-17T05:41:53.765Z,8.15
2023-01-17T05:44:20.232Z,8.90
2023-01-17T05:46:56.359Z,6.63
2023-01-17T05:49:22.889Z,6.40
2023-01-17T05:51:49.498Z,6.78
2023-01-17T05:54:16.124Z,7.60
2023-01-17T05:56:42.563Z,15.23
2023-01-17T05:59:09.099Z,15.13
2023-01-17T06:01:35.560Z,14.25
2023-01-17T06:04:02.010Z,7.70
2023-01-17T06:06:28.497Z,7.85
2023-01-17T06:08:54.979Z,11.00
2023-01-17T06:11:21.480Z,8.50
2023-01-17T06:13:48.813Z,9.90
2023-01-17T06:16:15.356Z,12.13
2023-01-17T06:18:41.890Z,6.65
2023-01-17T06:21:08.358Z,7.60
2023-01-17T06:23:34.848Z,8.80
2023-01-17T06:26:04.528Z,12.77
2023-01-17T06:28:31.223Z,7.82
2023-01-17T06:34:29.350Z,9.75
2023-01-17T06:36:55.933Z,9.40
2023-01-17T06:39:22.450Z,7.85
2023-01-17T06:41:48.983Z,17.27
2023-01-17T06:44:15.420Z,16.90
2023-01-17T06:46:41.945Z,6.80
2023-01-17T06:49:08.428Z,7.35
2023-01-17T06:51:34.943Z,5.05
2023-01-17T06:54:01.387Z,5.35
2023-01-17T06:56:30.213Z,5.95
2023-01-17T06:58:56.760Z,9.45
2023-01-17T07:01:23.389Z,8.63
2023-01-17T07:03:50.068Z,11.85
2023-01-17T07:06:16.567Z,5.53
2023-01-17T07:08:43.013Z,5.10
2023-01-17T07:11:09.687Z,6.95
2023-01-17T07:13:38.952Z,5.22
2023-01-17T07:16:06.140Z,5.65
2023-01-17T07:18:33.062Z,5.10
2023-01-17T07:20:59.644Z,9.43
2023-01-17T07:23:26.280Z,5.82
2023-01-17T07:25:57.140Z,8.55
2023-01-17T07:28:24.212Z,10.87
2023-01-17T07:30:51.915Z,13.88
2023-01-17T07:33:18.835Z,7.93
2023-01-17T07:35:45.685Z,11.63
2023-01-17T07:38:19.011Z,12.80
2023-01-17T07:40:46.324Z,11.18
2023-01-17T07:43:16.690Z,15.18
2023-01-17T07:45:43.701Z,7.95
2023-01-17T07:48:10.817Z,12.80
2023-01-17T07:50:37.508Z,9.02
2023-01-17T07:53:04.350Z,24.13
2023-01-17T07:55:31.148Z,9.63
2023-01-17T07:57:57.700Z,11.07
2023-01-17T08:00:27.755Z,14.45
2023-01-17T08:02:57.749Z,7.47
2023-01-17T08:05:24.544Z,8.05
2023-01-17T08:07:51.402Z,6.03
2023-01-17T08:10:18.216Z,5.78
2023-01-17T08:12:45.769Z,5.22
2023-01-17T08:15:12.282Z,11.52
2023-01-17T08:17:39.135Z,16.15
2023-01-17T08:20:06.338Z,21.27
2023-01-17T08:22:32.907Z,25.52
2023-01-17T08:24:59.445Z,34.65
2023-01-17T08:27:25.989Z,34.65
2023-01-17T08:29:52.516Z,37.63
2023-01-17T08:32:19.943Z,35.90
2023-01-17T08:34:46.370Z,29.52
2023-01-17T08:37:13.009Z,22.85
2023-01-17T08:39:39.528Z,13.88
2023-01-17T08:42:06.209Z,16.48
2023-01-17T08:44:32.843Z,9.55
2023-01-17T08:46:59.735Z,7.07
2023-01-17T08:49:26.188Z,7.68
2023-01-17T08:51:52.848Z,9.13
2023-01-17T08:54:19.370Z,8.70
2023-01-17T08:56:47.452Z,7.40
2023-01-17T08:59:14.002Z,9.25
2023-01-17T09:01:45.878Z,6.57
2023-01-17T09:04:12.639Z,10.52
2023-01-17T12:07:09.762Z,25.83
2023-01-17T12:09:45.259Z,24.73
2023-01-17T12:12:42.527Z,29.90
2023-01-17T12:15:17.763Z,27.17
2023-01-17T12:18:05.825Z,27.90
2023-01-17T12:20:51.152Z,22.85
2023-01-17T12:23:32.885Z,25.48
2023-01-17T12:26:03.996Z,25.77
2023-01-17T12:29:00.192Z,18.77
2023-01-17T12:31:46.983Z,23.13
2023-01-17T12:34:13.998Z,26.75
2023-01-17T12:36:48.462Z,28.05
2023-01-17T12:39:16.570Z,27.83
2023-01-17T12:41:58.504Z,27.45
2023-01-17T12:46:57.955Z,26.60
2023-01-17T12:49:24.431Z,31.35
2023-01-17T12:51:54.078Z,27.92
2023-01-17T12:54:27.683Z,25.80
2023-01-17T12:56:56.687Z,28.23
2023-01-17T12:59:46.342Z,27.25
2023-01-17T13:02:20.742Z,28.08
2023-01-17T13:05:10.603Z,25.02
2023-01-17T13:07:40.560Z,30.42
2023-01-17T13:10:29.263Z,28.17
2023-01-17T13:12:59.275Z,31.48
2023-01-17T13:15:28.608Z,26.27
2023-01-17T13:45:17.571Z,24.30
2023-01-17T14:06:47.810Z,30.83
2023-01-17T14:09:29.237Z,26.70
2023-01-17T14:11:57.641Z,33.53
2023-01-17T14:14:42.977Z,89.10
2023-01-17T14:17:29.264Z,55.08
2023-01-17T14:19:57.847Z,92.18
2023-01-17T14:22:25.386Z,56.78
2023-01-17T14:25:00.265Z,45.22
2023-01-17T14:27:27.802Z,50.63
2023-01-17T14:30:03.162Z,40.63
2023-01-17T14:32:31.590Z,40.85
2023-01-17T14:34:58.231Z,77.72
2023-01-17T14:37:29.038Z,462.65
2023-01-17T14:39:55.589Z,583.92
2023-01-17T14:42:23.674Z,214.27
2023-01-17T14:44:52.521Z,48.88
2023-01-17T14:47:19.059Z,37.53
2023-01-17T14:49:45.606Z,33.33
2023-01-17T14:52:17.620Z,25.45
2023-01-17T14:54:49.964Z,26.02
2023-01-17T14:57:27.992Z,24.00
2023-01-17T15:00:11.159Z,24.50
2023-01-17T15:02:42.219Z,23.80
2023-01-17T15:05:11.310Z,26.27
2023-01-17T15:07:38.005Z,27.30
2023-01-17T15:10:04.682Z,27.25
2023-01-17T15:12:31.251Z,30.55
2023-01-17T15:14:59.458Z,33.08
2023-01-17T15:17:26.023Z,41.90
2023-01-17T15:20:01.474Z,31.63
2023-01-17T15:22:29.862Z,29.20
2023-01-17T15:24:57.088Z,33.45
2023-01-17T15:27:24.690Z,37.35
2023-01-17T15:29:51.364Z,27.50
2023-01-17T15:32:19.618Z,28.13
2023-01-17T15:34:48.061Z,30.42
2023-01-17T15:37:29.822Z,26.33
2023-01-17T15:40:07.637Z,21.88
2023-01-17T15:42:36.409Z,22.73
2023-01-17T15:45:04.824Z,32.05
2023-01-17T15:47:32.696Z,29.58
2023-01-17T15:52:28.539Z,36.53
2023-01-17T15:57:39.033Z,32.60
2023-01-17T16:00:20.381Z,22.65
